Time;durP1;ratioP1;P1;durP2;ratioP2;P2;SDS_P1;SDS_P2;PMS_P1;PMS_P2;Temp;Humidity;BMP_temperature;BMP_pressure;BME280_temperature;BME280_humidity;BME280_pressure;Samples;Min_cycle;Max_cycle;Signal;HPM_P1;HPM_P2
2023/03/10 00:01:37;;;;;;;0.10;0.10;;;;;;;-3.15;66.69;98106.97;5023936;28;20470;-70
2023/03/10 00:04:03;;;;;;;0.10;0.10;;;;;;;-3.17;66.83;98100.22;5024601;28;20544;-69
2023/03/10 00:06:33;;;;;;;0.10;0.10;;;;;;;-3.17;66.85;98113.59;5011789;28;20571;-70
2023/03/10 00:09:01;;;;;;;0.20;0.20;;;;;;;-3.21;67.20;98112.41;5006967;28;20408;-70
2023/03/10 00:11:27;;;;;;;0.13;0.13;;;;;;;-3.18;67.04;98111.97;5024006;28;20107;-70
2023/03/10 00:13:54;;;;;;;0.10;0.10;;;;;;;-3.18;67.01;98109.28;5021800;28;20054;-70
2023/03/10 00:16:22;;;;;;;0.10;0.10;;;;;;;-3.23;67.04;98095.78;5009269;28;20045;-70
2023/03/10 00:18:48;;;;;;;0.23;0.17;;;;;;;-3.18;66.53;98114.63;5026554;28;20073;-70
2023/03/10 00:21:17;;;;;;;0.10;0.10;;;;;;;-3.19;66.60;98118.34;5008167;28;20217;-69
2023/03/10 00:23:43;;;;;;;0.20;0.20;;;;;;;-3.21;66.62;98115.88;5025034;28;20420;-70
2023/03/10 00:26:11;;;;;;;0.10;0.10;;;;;;;-3.19;66.52;98113.81;5023944;28;20143;-70
2023/03/10 00:28:37;;;;;;;0.10;0.10;;;;;;;-3.19;66.45;98121.03;5007318;28;20038;-70
2023/03/10 00:31:06;;;;;;;0.10;0.10;;;;;;;-3.28;66.17;98116.00;5023496;28;20136;-70
2023/03/10 00:33:33;;;;;;;0.10;0.10;;;;;;;-3.23;66.07;98130.53;5026533;28;20551;-74
2023/03/10 00:36:02;;;;;;;0.20;0.20;;;;;;;-3.22;65.83;98122.28;5007836;28;20045;-74
2023/03/10 00:38:28;;;;;;;0.10;0.10;;;;;;;-3.24;64.91;98118.22;5038058;28;20049;-74
2023/03/10 00:40:58;;;;;;;0.10;0.10;;;;;;;-3.21;64.78;98120.44;5021966;28;20608;-75
2023/03/10 00:43:25;;;;;;;0.10;0.10;;;;;;;-3.36;64.71;98108.28;5006087;28;20053;-74
2023/03/10 00:45:51;;;;;;;0.20;0.20;;;;;;;-3.26;64.56;98120.31;5023939;28;20054;-74
2023/03/10 00:48:18;;;;;;;0.20;0.20;;;;;;;-3.30;64.37;98119.94;5017131;28;20096;-75
2023/03/10 00:50:44;;;;;;;0.20;0.20;;;;;;;-3.33;64.31;98117.72;5021626;28;20050;-74
2023/03/10 00:53:10;;;;;;;0.20;0.20;;;;;;;-3.36;64.25;98121.66;5021690;28;20073;-74
2023/03/10 00:55:36;;;;;;;0.10;0.10;;;;;;;-3.42;64.15;98109.19;5020907;28;20084;-74
2023/03/10 00:58:02;;;;;;;0.10;0.10;;;;;;;-3.42;63.99;98114.53;5022959;28;20045;-74
2023/03/10 01:00:30;;;;;;;0.10;0.10;;;;;;;-3.48;64.22;98108.22;5005681;28;20588;-74
2023/03/10 01:02:57;;;;;;;0.20;0.20;;;;;;;-3.45;64.23;98118.47;5016237;28;20076;-74
2023/03/10 01:05:24;;;;;;;0.10;0.10;;;;;;;-3.47;64.40;98125.06;5009801;28;20056;-74
2023/03/10 01:07:50;;;;;;;0.10;0.10;;;;;;;-3.48;64.46;98128.78;5024822;28;20095;-74
2023/03/10 01:10:17;;;;;;;0.10;0.10;;;;;;;-3.54;64.57;98132.34;5012007;28;20488;-74
2023/03/10 01:12:43;;;;;;;0.10;0.10;;;;;;;-3.56;64.44;98127.22;4984678;28;20469;-74
2023/03/10 01:15:11;;;;;;;0.10;0.10;;;;;;;-3.60;64.49;98131.41;5018454;28;20084;-74
2023/03/10 01:17:39;;;;;;;0.20;0.20;;;;;;;-3.60;64.61;98136.75;5025593;28;20108;-75
2023/03/10 01:20:08;;;;;;;0.10;0.10;;;;;;;-3.61;64.68;98132.44;5004038;28;20048;-73
2023/03/10 01:22:34;;;;;;;0.10;0.10;;;;;;;-3.67;64.75;98127.97;5014095;28;20068;-73
2023/03/10 01:25:00;;;;;;;0.10;0.10;;;;;;;-3.63;64.84;98138.00;4989218;28;20105;-73
2023/03/10 01:27:27;;;;;;;0.10;0.10;;;;;;;-3.63;64.93;98126.50;5024548;28;20092;-73
2023/03/10 01:29:53;;;;;;;0.10;0.10;;;;;;;-3.61;65.15;98137.78;5020341;28;20135;-73
2023/03/10 01:32:19;;;;;;;0.10;0.10;;;;;;;-3.75;65.28;98105.88;5017721;28;20048;-73
2023/03/10 01:34:46;;;;;;;0.10;0.10;;;;;;;-3.60;65.23;98129.53;5027275;28;20271;-73
2023/03/10 01:37:12;;;;;;;0.10;0.10;;;;;;;-3.63;65.30;98129.97;5020532;28;20108;-73
2023/03/10 01:39:41;;;;;;;0.10;0.10;;;;;;;-3.65;65.38;98136.59;5005517;28;20592;-74
2023/03/10 01:42:07;;;;;;;0.10;0.10;;;;;;;-3.67;65.57;98139.47;4998395;28;20045;-74
2023/03/10 01:44:33;;;;;;;0.10;0.10;;;;;;;-3.72;65.47;98128.66;5022991;28;20060;-70
2023/03/10 01:46:59;;;;;;;0.10;0.10;;;;;;;-3.78;65.56;98140.22;4986397;28;20084;-70
2023/03/10 01:49:37;;;;;;;0.10;0.10;;;;;;;-3.81;65.53;98141.50;5003964;28;20054;-70
2023/03/10 01:52:10;;;;;;;0.10;0.10;;;;;;;-3.87;65.65;98134.34;5000643;28;20042;-70
2023/03/10 01:54:43;;;;;;;0.17;0.17;;;;;;;-3.97;65.80;98124.19;5012641;28;20057;-70
2023/03/10 01:57:10;;;;;;;0.13;0.13;;;;;;;-3.89;65.92;98141.78;5021474;28;20492;-70
2023/03/10 01:59:39;;;;;;;0.10;0.10;;;;;;;-3.91;65.78;98146.53;5004434;28;20049;-68
2023/03/10 02:02:06;;;;;;;0.10;0.10;;;;;;;-3.93;66.07;98146.72;5021063;28;20111;-70
2023/03/10 02:04:35;;;;;;;0.10;0.10;;;;;;;-3.93;66.15;98149.41;5006714;28;20428;-70
2023/03/10 02:07:05;;;;;;;0.10;0.10;;;;;;;-3.95;66.15;98148.00;5015685;28;20049;-70
2023/03/10 02:09:35;;;;;;;0.10;0.10;;;;;;;-3.87;65.99;98163.72;5004187;28;20096;-69
2023/03/10 02:12:03;;;;;;;0.10;0.10;;;;;;;-3.88;65.85;98162.09;5005980;28;20060;-70
2023/03/10 02:14:31;;;;;;;0.10;0.10;;;;;;;-3.89;65.81;98176.50;5006920;28;20050;-69
2023/03/10 02:16:58;;;;;;;0.10;0.10;;;;;;;-3.91;65.92;98179.38;5004124;28;20050;-70
2023/03/10 02:19:44;;;;;;;0.10;0.10;;;;;;;-3.89;65.78;98182.66;5005705;28;20053;-71
2023/03/10 02:22:14;;;;;;;0.10;0.10;;;;;;;-3.88;66.11;98186.97;5012591;28;20136;-71
2023/03/10 02:24:48;;;;;;;0.10;0.10;;;;;;;-3.90;66.00;98191.72;4998374;28;20048;-74
2023/03/10 02:27:23;;;;;;;0.10;0.10;;;;;;;-3.95;66.02;98183.53;5007696;28;20055;-74
2023/03/10 02:29:55;;;;;;;0.10;0.10;;;;;;;-3.98;65.77;98191.97;5023476;28;20527;-74
2023/03/10 02:32:22;;;;;;;0.10;0.10;;;;;;;-4.02;65.66;98194.25;4989750;28;20050;-74
2023/03/10 02:34:48;;;;;;;0.10;0.10;;;;;;;-4.10;64.80;98191.88;5007948;28;20045;-74
2023/03/10 02:37:20;;;;;;;0.10;0.10;;;;;;;-4.13;64.17;98197.66;5022624;28;20120;-74
2023/03/10 02:39:47;;;;;;;0.10;0.10;;;;;;;-4.18;63.82;98198.31;4999575;28;20064;-73
2023/03/10 02:42:14;;;;;;;0.10;0.10;;;;;;;-4.16;63.21;98209.59;5020433;28;20057;-73
2023/03/10 02:44:43;;;;;;;0.10;0.10;;;;;;;-4.19;63.51;98202.03;5006411;28;20432;-73
2023/03/10 02:47:11;;;;;;;0.10;0.10;;;;;;;-4.12;63.43;98215.31;5002900;28;20539;-73
2023/03/10 02:49:38;;;;;;;0.17;0.17;;;;;;;-4.10;63.02;98215.09;5026172;28;20058;-74
2023/03/10 02:52:09;;;;;;;0.10;0.10;;;;;;;-4.12;62.22;98209.97;5044332;28;20069;-74
2023/03/10 02:54:35;;;;;;;0.10;0.10;;;;;;;-4.11;62.16;98213.44;5027844;28;20432;-73
2023/03/10 02:57:01;;;;;;;0.10;0.10;;;;;;;-4.14;61.95;98214.69;5028474;28;20310;-74
2023/03/10 02:59:28;;;;;;;0.10;0.10;;;;;;;-4.18;61.53;98216.19;5006502;28;20061;-74
2023/03/10 03:01:55;;;;;;;0.20;0.20;;;;;;;-4.20;61.60;98220.91;5006563;28;20050;-73
2023/03/10 03:04:22;;;;;;;;;;;;;;;-4.24;61.58;98217.84;5004834;28;20070;-74
2023/03/10 03:06:48;;;;;;;0.10;0.10;;;;;;;-4.30;61.49;98216.88;5006335;28;19952;-74
2023/03/10 03:09:14;;;;;;;0.10;0.10;;;;;;;-4.32;61.49;98223.47;5007368;28;21146;-74
2023/03/10 03:11:40;;;;;;;0.10;0.10;;;;;;;-4.34;61.67;98207.66;5021913;28;20575;-73
2023/03/10 03:14:08;;;;;;;;;;;;;;;-4.36;61.31;98214.28;5009042;28;20057;-73
2023/03/10 03:16:34;;;;;;;0.10;0.10;;;;;;;-4.40;60.67;98213.88;5024127;28;19925;-74
2023/03/10 03:19:05;;;;;;;0.10;0.10;;;;;;;-4.44;60.33;98218.03;5021963;28;20065;-73
2023/03/10 03:21:31;;;;;;;0.10;0.10;;;;;;;-4.50;60.06;98213.53;5009228;28;20056;-74
2023/03/10 03:23:58;;;;;;;0.10;0.10;;;;;;;-4.50;60.17;98217.03;5023639;28;20053;-73
2023/03/10 03:26:25;;;;;;;0.10;0.10;;;;;;;-4.53;60.21;98224.63;5017447;28;20180;-73
2023/03/10 03:28:57;;;;;;;0.10;0.10;;;;;;;-4.55;60.01;98219.50;5003779;28;20107;-73
2023/03/10 03:31:28;;;;;;;0.10;0.10;;;;;;;-4.62;60.48;98222.22;5019489;28;20050;-73
2023/03/10 03:34:05;;;;;;;0.10;0.10;;;;;;;-4.63;60.48;98230.44;5016611;28;20421;-74
2023/03/10 03:36:32;;;;;;;0.10;0.10;;;;;;;-4.62;60.73;98238.22;5010026;28;20518;-73
2023/03/10 03:38:58;;;;;;;0.10;0.10;;;;;;;-4.65;61.21;98222.66;5006537;28;20108;-74
2023/03/10 03:41:27;;;;;;;0.10;0.10;;;;;;;-4.67;60.86;98226.59;5004156;28;20061;-73
2023/03/10 03:43:53;;;;;;;0.10;0.10;;;;;;;-4.64;60.97;98229.63;5016286;28;20057;-74
2023/03/10 03:46:19;;;;;;;0.10;0.10;;;;;;;-4.65;60.99;98238.66;4991737;28;20053;-74
2023/03/10 03:48:45;;;;;;;0.10;0.10;;;;;;;-4.72;61.20;98235.22;5003407;28;20137;-74
2023/03/10 03:51:13;;;;;;;0.10;0.10;;;;;;;-4.86;61.41;98213.13;5022200;28;20042;-74
2023/03/10 03:53:41;;;;;;;0.10;0.10;;;;;;;-4.78;61.72;98234.22;5007379;28;20049;-74
2023/03/10 03:56:08;;;;;;;0.10;0.10;;;;;;;-4.78;61.63;98236.88;5020443;28;20543;-74
2023/03/10 03:58:36;;;;;;;0.10;0.10;;;;;;;-4.77;61.07;98235.03;5021839;28;20064;-73
2023/03/10 04:01:03;;;;;;;0.20;0.20;;;;;;;-4.86;60.98;98229.94;5024111;28;20125;-70
2023/03/10 04:03:34;;;;;;;0.17;0.17;;;;;;;-4.86;61.11;98243.28;5002860;28;20049;-70
2023/03/10 04:06:01;;;;;;;0.10;0.10;;;;;;;-4.90;61.16;98243.91;5004004;28;20243;-70
2023/03/10 04:08:28;;;;;;;0.10;0.10;;;;;;;-4.97;61.33;98232.47;4988340;28;20046;-70
2023/03/10 04:10:54;;;;;;;0.10;0.10;;;;;;;-4.92;61.03;98252.13;5003844;28;20057;-69
2023/03/10 04:13:24;;;;;;;0.10;0.10;;;;;;;-4.99;61.14;98254.84;5011414;28;20080;-70
2023/03/10 04:15:55;;;;;;;0.10;0.10;;;;;;;-5.01;61.30;98254.22;5017850;28;20571;-70
2023/03/10 04:18:22;;;;;;;0.10;0.10;;;;;;;-4.94;61.22;98258.72;4988357;28;20513;-70
2023/03/10 04:20:48;;;;;;;0.10;0.10;;;;;;;-4.93;61.17;98257.69;5011639;28;20520;-69
2023/03/10 04:23:15;;;;;;;0.10;0.10;;;;;;;-4.95;61.28;98257.06;5007717;28;20424;-69
2023/03/10 04:25:43;;;;;;;0.15;0.15;;;;;;;-4.99;61.08;98270.00;5002462;28;20049;-70
2023/03/10 04:28:10;;;;;;;0.10;0.10;;;;;;;-5.01;61.10;98272.06;5022110;28;20455;-70
2023/03/10 04:30:40;;;;;;;0.30;0.20;;;;;;;-5.01;61.28;98277.41;5020464;28;20049;-69
2023/03/10 04:33:06;;;;;;;0.10;0.10;;;;;;;-5.03;61.13;98277.59;5004556;28;20084;-69
2023/03/10 04:35:33;;;;;;;;;;;;;;;-5.00;61.20;98277.16;5023874;28;20140;-69
2023/03/10 04:38:00;;;;;;;0.10;0.10;;;;;;;-5.05;61.00;98273.53;5013509;28;19925;-71
2023/03/10 04:40:30;;;;;;;0.20;0.20;;;;;;;-5.02;61.16;98279.22;5019141;28;20140;-69
2023/03/10 04:42:58;;;;;;;0.10;0.10;;;;;;;-4.97;60.92;98294.59;5001580;28;20050;-70
2023/03/10 04:45:24;;;;;;;0.10;0.10;;;;;;;-5.00;61.04;98293.16;4656262;28;9999767;-69
2023/03/10 04:47:51;;;;;;;0.10;0.10;;;;;;;-4.96;61.34;98290.91;4998876;28;20084;-70
2023/03/10 04:50:18;;;;;;;0.20;0.20;;;;;;;-4.88;61.04;98293.34;5003907;28;20077;-69
2023/03/10 04:52:46;;;;;;;0.13;0.13;;;;;;;-4.82;60.99;98299.69;4990849;28;20575;-70
2023/03/10 04:55:13;;;;;;;0.10;0.10;;;;;;;-4.83;60.68;98300.72;4993643;28;20046;-70
2023/03/10 04:57:39;;;;;;;0.10;0.10;;;;;;;-4.85;60.33;98305.44;4994243;28;20506;-69
2023/03/10 05:00:11;;;;;;;0.10;0.10;;;;;;;-4.85;59.92;98306.25;4987292;28;20049;-69
2023/03/10 05:02:39;;;;;;;0.10;0.10;;;;;;;-4.80;59.96;98307.47;5003811;28;20509;-69
2023/03/10 05:05:06;;;;;;;0.10;0.10;;;;;;;-4.78;59.99;98310.72;4988230;28;20046;-69
2023/03/10 05:07:34;;;;;;;0.10;0.10;;;;;;;-4.76;59.81;98314.84;5003240;28;20572;-70
2023/03/10 05:10:01;;;;;;;0.10;0.10;;;;;;;-4.69;59.92;98328.16;5011045;28;20075;-70
2023/03/10 05:12:29;;;;;;;0.10;0.10;;;;;;;-4.70;59.79;98321.97;5018015;28;20065;-70
2023/03/10 05:14:55;;;;;;;0.10;0.10;;;;;;;-4.73;59.50;98326.94;5011816;28;20618;-69
2023/03/10 05:17:23;;;;;;;0.20;0.20;;;;;;;-4.77;59.34;98339.88;5008223;28;20057;-70
2023/03/10 05:19:50;;;;;;;0.10;0.10;;;;;;;-4.78;59.30;98342.75;5020601;28;20053;-70
2023/03/10 05:22:16;;;;;;;0.10;0.10;;;;;;;-4.81;59.28;98340.50;5016503;28;20129;-70
2023/03/10 05:24:42;;;;;;;0.10;0.10;;;;;;;-4.72;58.93;98358.72;5021867;28;20084;-70
2023/03/10 05:27:10;;;;;;;0.10;0.10;;;;;;;-4.78;58.67;98353.41;5001248;28;20065;-70
2023/03/10 05:29:38;;;;;;;0.20;0.20;;;;;;;-4.78;59.08;98361.41;4972917;28;20049;-69
2023/03/10 05:32:11;;;;;;;0.20;0.10;;;;;;;-4.86;58.91;98352.63;4989135;28;20054;-70
2023/03/10 05:34:41;;;;;;;0.10;0.10;;;;;;;-4.92;59.15;98355.31;5005288;28;20239;-70
2023/03/10 05:37:07;;;;;;;;;;;;;;;-4.93;59.51;98367.00;5006362;28;20137;-70
2023/03/10 05:39:33;;;;;;;0.10;0.10;;;;;;;-4.93;59.98;98372.34;5001228;28;20036;-70
2023/03/10 05:42:03;;;;;;;0.20;0.20;;;;;;;-4.95;59.94;98374.41;4992372;28;20049;-70
2023/03/10 05:44:32;;;;;;;0.10;0.10;;;;;;;-4.86;60.32;98373.13;5011265;28;20120;-73
2023/03/10 05:47:00;;;;;;;0.23;0.20;;;;;;;-4.74;60.56;98384.00;5004915;28;20096;-73
2023/03/10 05:49:26;;;;;;;0.17;0.17;;;;;;;-4.72;60.53;98382.72;5013551;28;20539;-74
2023/03/10 05:51:54;;;;;;;0.20;0.20;;;;;;;-4.62;60.68;98387.63;5009430;28;20074;-73
2023/03/10 05:54:21;;;;;;;0.10;0.10;;;;;;;-4.53;60.44;98393.53;5002526;28;20037;-74
2023/03/10 05:56:47;;;;;;;0.10;0.10;;;;;;;-4.55;60.55;98395.59;5009227;28;20567;-73
2023/03/10 05:59:13;;;;;;;0.10;0.10;;;;;;;-4.48;60.48;98398.25;5018139;28;20055;-73
2023/03/10 06:01:40;;;;;;;0.10;0.10;;;;;;;-4.52;59.88;98410.38;5002249;28;20053;-73
2023/03/10 06:04:07;;;;;;;0.05;0.05;;;;;;;-4.55;60.08;98414.28;5014026;28;20049;-73
2023/03/10 06:06:34;;;;;;;0.10;0.10;;;;;;;-4.63;60.32;98425.19;5022311;28;20065;-73
2023/03/10 06:09:02;;;;;;;0.10;0.10;;;;;;;-4.64;60.41;98421.69;5014261;28;20050;-73
2023/03/10 06:11:29;;;;;;;0.20;0.20;;;;;;;-4.78;60.13;98398.75;5014382;28;20068;-70
2023/03/10 06:13:55;;;;;;;0.17;0.17;;;;;;;-4.62;59.85;98424.16;5020135;28;20152;-70
2023/03/10 06:16:21;;;;;;;0.20;0.20;;;;;;;-4.48;59.39;98433.78;5041051;28;20061;-74
2023/03/10 06:18:51;;;;;;;0.10;0.10;;;;;;;-4.38;58.94;98438.66;5023320;28;20574;-71
2023/03/10 06:21:17;;;;;;;0.20;0.20;;;;;;;-4.22;57.76;98423.19;5002833;28;20517;-73
2023/03/10 06:23:43;;;;;;;0.20;0.20;;;;;;;-3.95;56.71;98439.91;5016984;28;20424;-70
2023/03/10 06:26:13;;;;;;;0.20;0.20;;;;;;;-3.79;55.95;98440.44;5014270;28;20037;-75
2023/03/10 06:28:43;;;;;;;0.20;0.20;;;;;;;-3.70;56.03;98437.31;5014385;28;20120;-73
2023/03/10 06:31:12;;;;;;;0.30;0.30;;;;;;;-3.57;55.79;98446.28;5007745;28;20049;-71
2023/03/10 06:33:38;;;;;;;0.20;0.20;;;;;;;-3.42;55.71;98452.13;5010829;28;20060;-70
2023/03/10 06:36:06;;;;;;;0.20;0.20;;;;;;;-3.31;55.44;98447.94;5009615;28;20412;-73
2023/03/10 06:38:34;;;;;;;0.10;0.10;;;;;;;-3.20;55.26;98456.28;5025664;28;20053;-70
2023/03/10 06:41:00;;;;;;;0.20;0.20;;;;;;;-3.20;55.29;98462.47;5023068;28;20051;-70
2023/03/10 06:43:29;;;;;;;0.30;0.30;;;;;;;-3.32;55.29;98469.56;5025039;28;20159;-70
2023/03/10 06:45:55;;;;;;;0.20;0.20;;;;;;;-3.47;55.42;98468.00;5038194;28;20398;-70
2023/03/10 06:48:21;;;;;;;0.20;0.20;;;;;;;-3.48;55.07;98468.22;5019064;28;20460;-71
2023/03/10 06:50:49;;;;;;;0.20;0.20;;;;;;;-3.48;54.85;98461.03;5020027;28;20050;-70
2023/03/10 06:53:17;;;;;;;0.20;0.20;;;;;;;-3.43;54.56;98473.75;5022628;28;20052;-70
2023/03/10 06:55:43;;;;;;;0.20;0.20;;;;;;;-3.49;54.67;98477.25;5026340;28;20055;-74
2023/03/10 06:58:09;;;;;;;0.20;0.20;;;;;;;-3.40;54.25;98477.81;5023090;28;20584;-73
2023/03/10 07:00:38;;;;;;;0.17;0.17;;;;;;;-3.38;54.32;98492.63;5022409;28;20134;-74
2023/03/10 07:03:04;;;;;;;0.20;0.20;;;;;;;-3.26;54.50;98487.38;5026584;28;20520;-74
2023/03/10 07:05:31;;;;;;;0.20;0.20;;;;;;;-3.18;54.33;98500.50;5024856;28;20060;-73
2023/03/10 07:07:57;;;;;;;0.20;0.20;;;;;;;-3.18;54.68;98500.50;5008306;28;20049;-73
2023/03/10 07:10:23;;;;;;;0.20;0.20;;;;;;;-3.24;54.79;98503.22;5004315;28;20049;-74
2023/03/10 07:12:53;;;;;;;0.20;0.20;;;;;;;-3.64;54.95;98505.09;5034098;28;20052;-73
2023/03/10 07:15:21;;;;;;;0.20;0.20;;;;;;;-3.91;55.81;98510.56;5006568;28;20411;-73
2023/03/10 07:17:48;;;;;;;0.43;0.30;;;;;;;-3.96;56.07;98514.94;5004317;28;20062;-73
2023/03/10 07:20:15;;;;;;;0.10;0.10;;;;;;;-4.31;56.44;98511.50;5015592;28;20417;-73
2023/03/10 07:22:41;;;;;;;0.20;0.20;;;;;;;-4.56;56.96;98525.53;5007557;28;20045;-73
2023/03/10 07:25:08;;;;;;;0.30;0.30;;;;;;;-4.49;57.12;98522.88;5025352;28;20041;-73
2023/03/10 07:27:34;;;;;;;0.10;0.10;;;;;;;-4.29;56.93;98527.34;5041305;28;20041;-74
2023/03/10 07:30:00;;;;;;;0.30;0.30;;;;;;;-3.83;56.05;98535.41;5008371;28;20041;-71
2023/03/10 07:32:26;;;;;;;0.40;0.40;;;;;;;-3.33;54.97;98534.75;5021764;28;20591;-71
2023/03/10 07:34:54;;;;;;;0.20;0.20;;;;;;;-2.67;52.86;98543.31;5019492;28;20139;-70
2023/03/10 07:37:20;;;;;;;0.20;0.20;;;;;;;-2.80;51.63;98538.91;5022658;28;20053;-71
2023/03/10 07:39:46;;;;;;;0.20;0.20;;;;;;;-2.85;52.07;98539.56;5020732;28;20081;-70
2023/03/10 07:42:13;;;;;;;0.20;0.20;;;;;;;-2.96;51.92;98548.28;5018238;28;20057;-70
2023/03/10 07:44:39;;;;;;;0.20;0.20;;;;;;;-3.15;51.98;98542.03;5040682;28;20344;-71
2023/03/10 07:47:06;;;;;;;0.20;0.20;;;;;;;-3.31;52.10;98549.53;5023632;28;20132;-70
2023/03/10 07:49:32;;;;;;;0.20;0.20;;;;;;;-3.24;52.20;98540.66;5024708;28;20063;-71
2023/03/10 07:51:59;;;;;;;0.20;0.20;;;;;;;-2.90;51.95;98558.09;5024736;28;20057;-71
2023/03/10 07:54:25;;;;;;;0.30;0.30;;;;;;;-2.72;50.97;98552.00;5026028;28;20145;-70
2023/03/10 07:56:51;;;;;;;0.30;0.30;;;;;;;-2.54;50.44;98563.78;5021118;28;20343;-70
2023/03/10 07:59:18;;;;;;;0.20;0.20;;;;;;;-2.42;49.99;98548.66;5025190;28;20058;-71
2023/03/10 08:01:44;;;;;;;0.20;0.20;;;;;;;-2.62;49.66;98554.19;5022645;28;20131;-70
2023/03/10 08:04:11;;;;;;;0.20;0.20;;;;;;;-2.75;49.75;98554.28;5008388;28;20136;-71
2023/03/10 08:06:39;;;;;;;0.30;0.30;;;;;;;-2.40;49.34;98569.03;5007682;28;20072;-71
2023/03/10 08:09:06;;;;;;;0.20;0.20;;;;;;;-1.95;48.45;98565.28;4990348;28;20521;-70
2023/03/10 08:11:33;;;;;;;0.20;0.20;;;;;;;-2.13;48.78;98564.22;4998537;28;20136;-71
2023/03/10 08:13:59;;;;;;;0.20;0.20;;;;;;;-2.59;49.54;98539.56;5036615;28;20459;-71
2023/03/10 08:16:25;;;;;;;0.20;0.20;;;;;;;-2.68;49.63;98559.59;5004704;28;20078;-71
2023/03/10 08:18:53;;;;;;;0.20;0.20;;;;;;;-2.61;49.84;98573.75;5003298;28;20049;-71
2023/03/10 08:21:19;;;;;;;0.10;0.10;;;;;;;-2.54;49.46;98569.16;5022348;28;20049;-70
2023/03/10 08:23:46;;;;;;;0.10;0.10;;;;;;;-2.72;49.55;98569.94;5019945;28;20057;-71
2023/03/10 08:26:16;;;;;;;0.30;0.30;;;;;;;-2.87;49.75;98565.72;5021924;28;20101;-71
2023/03/10 08:28:42;;;;;;;0.30;0.30;;;;;;;-2.26;48.96;98581.25;5021785;28;20127;-70
2023/03/10 08:31:10;;;;;;;0.20;0.20;;;;;;;-1.68;47.98;98581.91;5022571;28;20049;-71
2023/03/10 08:33:37;;;;;;;0.20;0.20;;;;;;;-1.39;47.44;98587.53;5013689;28;20061;-70
2023/03/10 08:36:05;;;;;;;0.20;0.20;;;;;;;-1.45;46.48;98591.94;5018418;28;20053;-71
2023/03/10 08:38:32;;;;;;;0.30;0.30;;;;;;;-1.58;46.62;98584.03;5004151;28;20518;-71
2023/03/10 08:41:07;;;;;;;0.22;0.22;;;;;;;-1.95;46.09;98590.22;5024199;28;20049;-71
2023/03/10 08:43:35;;;;;;;0.20;0.20;;;;;;;-2.19;46.71;98590.03;5019224;28;20067;-72
2023/03/10 08:46:01;;;;;;;0.20;0.20;;;;;;;-2.17;47.33;98601.38;5006382;28;20045;-72
2023/03/10 08:48:28;;;;;;;0.30;0.30;;;;;;;-2.04;47.44;98610.31;5027029;28;21682;-71
2023/03/10 08:50:54;;;;;;;0.20;0.20;;;;;;;-1.89;47.21;98600.03;5000270;28;20049;-72
2023/03/10 08:53:20;;;;;;;0.20;0.20;;;;;;;-2.00;47.09;98612.31;5017016;28;20049;-72
2023/03/10 08:55:47;;;;;;;0.20;0.20;;;;;;;-2.11;47.61;98612.25;5026192;28;20041;-72
2023/03/10 08:58:13;;;;;;;0.30;0.30;;;;;;;-2.23;47.80;98609.47;5024448;28;20053;-74
2023/03/10 09:00:41;;;;;;;0.20;0.20;;;;;;;-2.36;48.16;98616.56;5024513;28;20053;-73
2023/03/10 09:03:09;;;;;;;0.20;0.20;;;;;;;-2.38;48.51;98624.00;5019968;28;20559;-73
2023/03/10 09:05:36;;;;;;;0.20;0.20;;;;;;;-2.28;48.68;98623.50;5006872;28;20104;-74
2023/03/10 09:08:02;;;;;;;0.20;0.20;;;;;;;-2.27;48.74;98614.44;5019437;28;20041;-73
2023/03/10 09:10:28;;;;;;;0.20;0.20;;;;;;;-2.25;48.74;98623.06;5023776;28;20396;-73
2023/03/10 09:12:55;;;;;;;0.20;0.20;;;;;;;-2.16;48.68;98623.59;5039384;28;20403;-73
2023/03/10 09:15:21;;;;;;;0.30;0.30;;;;;;;-2.10;48.40;98625.41;5022826;28;20041;-73
2023/03/10 09:17:49;;;;;;;0.20;0.20;;;;;;;-2.01;48.10;98624.06;5017930;28;20061;-73
2023/03/10 09:20:15;;;;;;;0.30;0.30;;;;;;;-2.11;48.38;98634.47;5020914;28;20045;-73
2023/03/10 09:22:41;;;;;;;0.20;0.20;;;;;;;-2.23;48.53;98625.53;5023331;28;20080;-74
2023/03/10 09:25:09;;;;;;;0.20;0.20;;;;;;;-2.30;48.99;98626.41;5025320;28;20537;-72
2023/03/10 09:27:35;;;;;;;0.20;0.20;;;;;;;-2.50;49.62;98636.47;5025656;28;20050;-72
2023/03/10 09:30:01;;;;;;;0.20;0.20;;;;;;;-2.50;49.60;98628.44;5022749;28;20247;-73
2023/03/10 09:32:27;;;;;;;0.13;0.13;;;;;;;-2.50;49.28;98636.47;5018288;28;20108;-73
2023/03/10 09:34:55;;;;;;;0.20;0.20;;;;;;;-2.50;49.47;98621.19;5020630;28;20421;-73
2023/03/10 09:37:21;;;;;;;0.20;0.20;;;;;;;-2.27;49.61;98630.50;5035314;28;20064;-71
2023/03/10 09:39:47;;;;;;;0.20;0.20;;;;;;;-2.17;49.56;98641.56;5019668;28;20045;-72
2023/03/10 09:42:26;;;;;;;0.20;0.20;;;;;;;-2.18;49.22;98631.88;5016061;28;20088;-73
2023/03/10 09:45:03;;;;;;;0.20;0.20;;;;;;;-2.13;49.21;98641.91;5017551;28;20136;-74
2023/03/10 09:47:45;;;;;;;0.20;0.20;;;;;;;-2.02;49.04;98651.09;5003550;28;20045;-74
2023/03/10 09:50:31;;;;;;;0.20;0.20;;;;;;;-2.07;48.67;98650.94;5014891;28;20049;-73
2023/03/10 09:53:06;;;;;;;0.20;0.20;;;;;;;-2.16;48.94;98653.91;5019679;28;20053;-73
2023/03/10 09:55:39;;;;;;;0.20;0.20;;;;;;;-2.32;49.43;98660.63;5020666;28;20484;-73
2023/03/10 09:58:12;;;;;;;0.20;0.20;;;;;;;-2.45;49.47;98658.88;5017043;28;20053;-73
2023/03/10 10:00:42;;;;;;;0.20;0.20;;;;;;;-2.58;50.08;98656.28;5019865;28;20550;-73
2023/03/10 10:03:16;;;;;;;0.20;0.20;;;;;;;-2.63;50.51;98653.44;5017652;28;20397;-73
2023/03/10 10:05:46;;;;;;;0.20;0.20;;;;;;;-2.74;50.38;98668.31;5023251;28;20125;-73
2023/03/10 10:08:20;;;;;;;0.20;0.20;;;;;;;-2.80;50.36;98656.66;5020743;28;20145;-74
2023/03/10 10:10:49;;;;;;;0.20;0.20;;;;;;;-2.84;50.52;98666.13;5022153;28;20050;-73
2023/03/10 10:13:16;;;;;;;0.30;0.30;;;;;;;-2.90;51.00;98667.00;5021944;28;20516;-74
2023/03/10 10:15:47;;;;;;;0.20;0.20;;;;;;;-2.87;51.11;98664.72;5020177;28;20144;-73
2023/03/10 10:18:22;;;;;;;0.20;0.20;;;;;;;-2.93;50.96;98656.72;5012878;28;20303;-73
2023/03/10 10:20:57;;;;;;;0.20;0.20;;;;;;;-2.92;51.32;98669.06;5022434;28;20475;-73
2023/03/10 10:23:29;;;;;;;0.10;0.10;;;;;;;-2.74;51.31;98668.31;5003105;28;20046;-74
2023/03/10 10:26:00;;;;;;;0.20;0.20;;;;;;;-2.75;51.27;98662.16;5031545;28;20057;-73
2023/03/10 10:28:35;;;;;;;0.20;0.20;;;;;;;-2.79;51.35;98676.19;5015986;28;20065;-72
2023/03/10 10:31:16;;;;;;;0.17;0.17;;;;;;;-2.75;51.17;98678.22;5019349;28;20104;-72
2023/03/10 10:33:54;;;;;;;0.20;0.20;;;;;;;-2.70;51.43;98680.25;5021390;28;20037;-73
2023/03/10 10:36:23;;;;;;;0.15;0.15;;;;;;;-2.58;51.29;98680.38;5004802;28;20049;-73
2023/03/10 10:38:51;;;;;;;0.20;0.20;;;;;;;-2.58;51.04;98677.69;5017582;28;20141;-71
2023/03/10 10:41:20;;;;;;;0.20;0.20;;;;;;;-2.59;50.59;98678.75;5024539;28;20046;-71
2023/03/10 10:43:47;;;;;;;0.20;0.20;;;;;;;-2.69;50.91;98676.53;5021354;28;20057;-71
2023/03/10 10:46:16;;;;;;;0.20;0.20;;;;;;;-2.77;51.09;98671.44;5021723;28;20058;-71
2023/03/10 10:48:45;;;;;;;0.10;0.10;;;;;;;-2.70;51.32;98680.25;5023538;28;20099;-71
2023/03/10 10:51:26;;;;;;;0.15;0.15;;;;;;;-2.70;51.29;98690.97;5018357;28;20050;-72
2023/03/10 10:53:53;;;;;;;0.10;0.10;;;;;;;-2.71;51.22;98694.69;5020663;28;20104;-71
2023/03/10 10:56:20;;;;;;;0.20;0.20;;;;;;;-2.59;51.12;98698.28;5027745;28;20050;-71
2023/03/10 10:59:01;;;;;;;0.20;0.20;;;;;;;-2.40;50.89;98702.91;5011803;28;20057;-72
2023/03/10 11:01:44;;;;;;;0.20;0.20;;;;;;;-2.36;50.72;98706.78;5028253;28;20072;-71
2023/03/10 11:04:12;;;;;;;0.17;0.17;;;;;;;-2.38;50.66;98714.22;5025444;28;20164;-71
2023/03/10 11:06:40;;;;;;;0.20;0.20;;;;;;;-2.40;50.70;98719.81;5028673;28;20471;-72
2023/03/10 11:09:10;;;;;;;;;;;;;;;-2.43;50.80;98722.91;5024231;28;20101;-72
2023/03/10 11:11:44;;;;;;;0.20;0.20;;;;;;;-2.57;50.73;98720.31;5027074;28;19925;-72
2023/03/10 11:14:28;;;;;;;0.23;0.23;;;;;;;-2.61;51.03;98729.81;5023367;28;20104;-72
2023/03/10 11:17:00;;;;;;;0.20;0.20;;;;;;;-2.53;51.37;98735.94;5022684;28;20148;-71
2023/03/10 11:19:35;;;;;;;0.20;0.20;;;;;;;-2.50;51.29;98722.94;5026764;28;20076;-71
2023/03/10 11:22:16;;;;;;;0.20;0.20;;;;;;;-2.64;51.36;98711.50;5023200;28;20042;-72
2023/03/10 11:24:50;;;;;;;0.20;0.20;;;;;;;-2.45;50.89;98733.00;5024436;28;20049;-72
2023/03/10 11:27:23;;;;;;;0.20;0.20;;;;;;;-2.52;50.32;98743.75;5019254;28;20610;-72
2023/03/10 11:30:03;;;;;;;0.17;0.17;;;;;;;-2.71;50.96;98740.16;5024204;28;20055;-73
2023/03/10 11:32:37;;;;;;;0.10;0.10;;;;;;;-2.73;50.93;98745.72;5027242;28;20111;-73
2023/03/10 11:35:16;;;;;;;0.20;0.20;;;;;;;-2.78;51.21;98753.59;5027197;28;20049;-71
2023/03/10 11:37:49;;;;;;;0.20;0.20;;;;;;;-2.67;51.38;98764.63;5001890;28;20065;-71
2023/03/10 11:40:18;;;;;;;0.20;0.20;;;;;;;-2.61;51.42;98755.75;5018001;28;20148;-73